Adana, Turkey
Current Conditions -  °F | °C
As of 5:50 PM on Sunday 21 Dec 2014 (Local Time) from LTAF Reporting Station
Haze Haze  
Wind Chill: 55°   Ceiling: Unl
Heat Index: 55°   Visibility: 2.8mi
Dew Point: 48°   Wind: 1mph
Humidity: 77%   Direction: NA
Pressure: 30.06"   Gusts: NA
Location:  36.82°N, 34.6°E
Report Text: LTAF 211450Z VRB01KT 4600 BR SCT035 13/09 Q1018 NOSIG
Loading
Personal Weather Stations






























Interactive Weather Map New forecast layout! Learn more

10-Day Weather Forecast

Advertisements
Track Severe Weather on mobile